Guide — WDE7328 — position and weather

sailwx.info

Track history (hours):
 
Tides and Currents Weather Stations Pressure Air Temp Water Temp Dewpoint Dewpoint Depression Visibility Wind Speed Wind Dir Waves Ship Positions

Guide

Owner: Crowley Marine Services, SEATTLE, WA. More information available from US FCC via Universal Licensing System and Coast Guard Vessel Documentation Center.

Last reported at 2017-Feb-24 21:33 UTC. Time now 2017-Feb-24 21:37 UTC.
Position N 47°15' W 122°26'.

Length 34 m; draft 5.1 m.

Type: Tug. MMSI: 366759530.

Date/timePositionNaut miles runAvg speedWind from/ knotsBaromVisibWave heightAir tempDewpointWater temp
2017-Feb-24 21:33N 47°15' W 122°26'0 0.2
2017-Feb-24 20:33N 47°15' W 122°26'0 0.0
2017-Feb-24 19:27N 47°15' W 122°26'0 0.0
2017-Feb-24 18:33N 47°15' W 122°26'0 0.0
2017-Feb-24 17:25N 47°15' W 122°26'0 0.0
2017-Feb-24 16:20N 47°15' W 122°26'0 0.0
2017-Feb-24 15:23N 47°15' W 122°26'2 1.7
2017-Feb-24 14:10N 47°16' W 122°23'1 1.9
2017-Feb-24 13:33N 47°16' W 122°24'1 0.8
2017-Feb-24 12:32N 47°17' W 122°25'1 1.0
2017-Feb-24 11:32N 47°16' W 122°24'2 2.1
2017-Feb-24 10:33N 47°18' W 122°26'0 0.3
2017-Feb-24 09:20N 47°18' W 122°26'0 0.0
2017-Feb-24 08:23N 47°18' W 122°26'0 0.0
2017-Feb-24 07:20N 47°18' W 122°26'0 0.0
2017-Feb-24 06:33N 47°18' W 122°26'0 0.0
2017-Feb-24 05:33N 47°18' W 122°26'0 0.0
2017-Feb-24 04:33N 47°18' W 122°26'0 0.0
2017-Feb-24 03:32N 47°18' W 122°26'4 4.6
2017-Feb-24 02:33N 47°22' W 122°24'7 7.0
2017-Feb-24 01:33N 47°29' W 122°26'7 7.0
2017-Feb-24 00:33N 47°36' W 122°24'2 2.1
2017-Feb-23 23:33N 47°35' W 122°21'0 0.2
2017-Feb-23 22:34N 47°35' W 122°21'3 2.6
2017-Feb-23 21:33N 47°35' W 122°25'5 5.1
2017-Feb-23 20:33N 47°34' W 122°32'1 1.0
2017-Feb-23 19:34N 47°34' W 122°31'1 1.5
2017-Feb-23 18:33N 47°33' W 122°29'7 7.1
2017-Feb-23 17:33N 47°26' W 122°31'7 7.0
2017-Feb-23 16:33N 47°19' W 122°30'4 3.5
2017-Feb-23 15:33N 47°18' W 122°26'0 0.0
2017-Feb-23 14:30N 47°18' W 122°26'1 1.4
2017-Feb-23 13:33N 47°17' W 122°25'1 0.6
2017-Feb-23 12:33N 47°17' W 122°26'1 0.6
2017-Feb-23 11:33N 47°17' W 122°25'0 0.4
2017-Feb-23 10:33N 47°17' W 122°25'2 1.8
2017-Feb-23 09:33N 47°16' W 122°23'2 1.9
2017-Feb-23 08:33N 47°15' W 122°26'0 0.0
2017-Feb-23 07:33N 47°15' W 122°26'0 0.0
2017-Feb-23 06:33N 47°15' W 122°26'0 0.0
2017-Feb-23 05:24N 47°15' W 122°26'0 0.0
2017-Feb-23 03:25N 47°15' W 122°26'0 0.0
2017-Feb-23 02:33N 47°15' W 122°26'0 0.0
2017-Feb-23 01:33N 47°15' W 122°26'1 0.8
2017-Feb-23 00:33N 47°16' W 122°27'2 2.4
2017-Feb-22 23:33N 47°16' W 122°23'2 1.5
2017-Feb-22 22:33N 47°17' W 122°25'2 1.6
2017-Feb-22 21:31N 47°15' W 122°26'0 0.0
2017-Feb-22 20:33N 47°15' W 122°26'0 0.0
2017-Feb-22 19:33N 47°15' W 122°26'2 1.6
2017-Feb-22 18:33N 47°16' W 122°24'0 0.2
2017-Feb-22 17:30N 47°16' W 122°24'1 0.6
2017-Feb-22 16:33N 47°16' W 122°23'0 0.0
2017-Feb-22 15:33N 47°16' W 122°23'0 0.0
2017-Feb-22 14:33N 47°16' W 122°23'1 0.7
2017-Feb-22 13:33N 47°16' W 122°24'0 0.3
2017-Feb-22 12:33N 47°16' W 122°23'0 0.4
2017-Feb-22 11:33N 47°16' W 122°23'2 2.0
2017-Feb-22 10:33N 47°15' W 122°26'0 0.0
2017-Feb-22 09:33N 47°15' W 122°26'0 0.0
2017-Feb-22 08:33N 47°15' W 122°26'0 0.0
2017-Feb-22 07:33N 47°15' W 122°26'0 0.0
2017-Feb-22 06:33N 47°15' W 122°26'0 0.0
2017-Feb-22 05:33N 47°15' W 122°26'0 0.0
2017-Feb-22 04:33N 47°15' W 122°26'0 0.0
2017-Feb-22 03:09N 47°15' W 122°26'2 2.7
2017-Feb-22 02:32N 47°17' W 122°25'2 1.7
2017-Feb-22 01:33N 47°16' W 122°23'2 1.0
2017-Feb-21 23:29N 47°15' W 122°26'0 0.0
2017-Feb-21 22:33N 47°15' W 122°26'0 0.0
2017-Feb-21 21:32N 47°15' W 122°26'0 0.0
2017-Feb-21 20:33N 47°15' W 122°26'0 0.0
2017-Feb-21 19:33N 47°15' W 122°26'0 0.0
2017-Feb-21 18:33N 47°15' W 122°26'0 0.0
2017-Feb-21 17:33N 47°15' W 122°26'0 0.0
2017-Feb-21 16:33N 47°15' W 122°26'0 0.0
2017-Feb-21 15:33N 47°15' W 122°26'0 0.0
2017-Feb-21 14:30N 47°15' W 122°26'0 0.3
2017-Feb-21 13:33N 47°16' W 122°26'2 2.0
2017-Feb-21 12:33N 47°16' W 122°23'1 0.4
2017-Feb-21 10:33N 47°16' W 122°24'2 1.6
2017-Feb-21 09:33N 47°15' W 122°26'0 0.0
2017-Feb-21 08:33N 47°15' W 122°26'0 0.0
2017-Feb-21 07:33N 47°15' W 122°26'0 0.0
2017-Feb-21 06:33N 47°15' W 122°26'0 0.0
2017-Feb-21 05:33N 47°15' W 122°26'0 0.0
2017-Feb-21 04:33N 47°15' W 122°26'0 0.0
2017-Feb-21 03:32N 47°15' W 122°26'0 0.0
2017-Feb-21 02:33N 47°15' W 122°26'2 1.5
2017-Feb-21 01:31N 47°16' W 122°24'0 0.4
2017-Feb-21 00:33N 47°16' W 122°24'1 1.5
2017-Feb-20 23:33N 47°17' W 122°26'1 0.9
2017-Feb-20 22:33N 47°18' W 122°26'0 0.0
2017-Feb-20 21:33N 47°18' W 122°26'0 0.0
2017-Feb-20 20:32N 47°18' W 122°26'0 0.0
2017-Feb-20 19:33N 47°18' W 122°26'0 0.0
2017-Feb-20 18:33N 47°18' W 122°26'0 0.0
2017-Feb-20 17:33N 47°18' W 122°26'0 0.0
2017-Feb-20 16:33N 47°18' W 122°26'2 2.1
2017-Feb-20 15:28N 47°16' W 122°24'1 1.0
2017-Feb-20 14:33N 47°15' W 122°23'2 1.8
2017-Feb-20 13:33N 47°17' W 122°25'1 1.3
2017-Feb-20 12:33N 47°16' W 122°26'1 0.7
2017-Feb-20 11:33N 47°15' W 122°26'0 0.0
2017-Feb-20 10:33N 47°15' W 122°26'0 0.0
2017-Feb-20 09:32N 47°15' W 122°26'0 0.0
2017-Feb-20 08:33N 47°15' W 122°26'0 0.0
2017-Feb-20 07:33N 47°15' W 122°26'0 0.0
2017-Feb-20 06:33N 47°15' W 122°26'0 0.0
2017-Feb-20 05:30N 47°15' W 122°26'0 0.0
2017-Feb-20 04:33N 47°15' W 122°26'0 0.0
2017-Feb-20 03:33N 47°15' W 122°26'0 0.0
2017-Feb-20 02:31N 47°15' W 122°26'0 0.0
2017-Feb-20 01:21N 47°15' W 122°26'2 1.9
2017-Feb-20 00:32N 47°17' W 122°25'1 1.3
2017-Feb-19 23:33N 47°18' W 122°26'0 0.4
2017-Feb-19 22:32N 47°17' W 122°26'2 2.3
2017-Feb-19 21:33N 47°16' W 122°23'3 3.0
2017-Feb-19 20:33N 47°18' W 122°27'1 0.7
2017-Feb-19 19:33N 47°18' W 122°26'0 0.0
2017-Feb-19 18:32N 47°18' W 122°26'5 5.2
2017-Feb-19 17:33N 47°22' W 122°23'7 7.1
2017-Feb-19 16:33N 47°29' W 122°26'7 7.0
2017-Feb-19 15:33N 47°36' W 122°23'2 1.8
2017-Feb-19 14:33N 47°35' W 122°21'4 4.2
2017-Feb-19 13:33N 47°32' W 122°25'1111.0
2017-Feb-19 12:33N 47°21' W 122°24'5 5.5
2017-Feb-19 11:33N 47°16' W 122°24'0 0.3
2017-Feb-19 10:33N 47°16' W 122°23'3 2.6
2017-Feb-19 09:33N 47°18' W 122°26'0 0.0
2017-Feb-19 08:33N 47°18' W 122°26'0 0.0
2017-Feb-19 07:33N 47°18' W 122°26'0 0.0
2017-Feb-19 06:33N 47°18' W 122°26'1 0.9
2017-Feb-19 05:33N 47°18' W 122°27'7 6.7
2017-Feb-19 04:33N 47°24' W 122°22'8 8.1
2017-Feb-19 03:33N 47°31' W 122°26'6 5.7
2017-Feb-19 02:33N 47°36' W 122°21'1 0.6
2017-Feb-19 01:33N 47°35' W 122°21'2 2.3
2017-Feb-19 00:33N 47°36' W 122°24'6 6.4
2017-Feb-18 23:33N 47°29' W 122°25'7 7.0
2017-Feb-18 22:33N 47°23' W 122°21'7 6.9
2017-Feb-18 21:33N 47°17' W 122°27'2 2.3
2017-Feb-18 20:32N 47°15' W 122°26'0 0.0
2017-Feb-18 19:30N 47°15' W 122°26'0 0.0
2017-Feb-18 18:32N 47°15' W 122°26'1 1.3
2017-Feb-18 17:33N 47°16' W 122°25'1 1.3
2017-Feb-18 16:33N 47°15' W 122°26'0 0.0
2017-Feb-18 15:33N 47°15' W 122°26'0 0.0
2017-Feb-18 14:33N 47°15' W 122°26'2 1.8
2017-Feb-18 13:33N 47°17' W 122°25'2 2.0
2017-Feb-18 12:32N 47°16' W 122°23'2 2.5
2017-Feb-18 11:33N 47°17' W 122°26'2 2.1
2017-Feb-18 10:33N 47°16' W 122°23'2 1.8
2017-Feb-18 09:33N 47°15' W 122°26'0 0.0
2017-Feb-18 08:33N 47°15' W 122°26'0 0.0
2017-Feb-18 07:33N 47°15' W 122°26'0 0.0
2017-Feb-18 06:33N 47°15' W 122°26'0 0.0
2017-Feb-18 05:33N 47°15' W 122°26'0 0.0
2017-Feb-18 04:33N 47°15' W 122°26'0 0.0
2017-Feb-18 03:33N 47°15' W 122°26'0 0.0
2017-Feb-18 02:31N 47°15' W 122°26'0 0.0
2017-Feb-18 00:25N 47°15' W 122°26'2 1.2
2017-Feb-17 23:08N 47°17' W 122°25'1 1.9
2017-Feb-17 22:33N 47°17' W 122°26'2 0.5
2017-Feb-17 19:21N 47°15' W 122°26'0 0.0
2017-Feb-17 18:33N 47°15' W 122°26'0 0.0
2017-Feb-17 17:33N 47°15' W 122°26'0 0.3
2017-Feb-17 16:33N 47°16' W 122°26'1 1.4
2017-Feb-17 15:29N 47°16' W 122°24'2 2.2
2017-Feb-17 14:33N 47°18' W 122°27'3 2.8
2017-Feb-17 13:33N 47°16' W 122°24'2 2.4
2017-Feb-17 12:33N 47°17' W 122°27'2 1.7
2017-Feb-17 11:33N 47°15' W 122°26'0 0.2
2017-Feb-17 10:33N 47°15' W 122°26'0 0.0
2017-Feb-17 09:33N 47°15' W 122°26'0 0.0
2017-Feb-17 08:33N 47°15' W 122°26'0 0.0
2017-Feb-17 07:33N 47°15' W 122°26'0 0.0
2017-Feb-17 06:33N 47°15' W 122°26'0 0.0
2017-Feb-17 05:33N 47°15' W 122°26'0 0.0
2017-Feb-17 04:33N 47°15' W 122°26'0 0.0
2017-Feb-17 03:33N 47°15' W 122°26'0 0.0
2017-Feb-17 02:33N 47°15' W 122°26'0 0.0
2017-Feb-17 01:33N 47°15' W 122°26'0 0.0
2017-Feb-17 00:33N 47°15' W 122°26'5 4.8
2017-Feb-16 23:33N 47°20' W 122°27'6 5.8
2017-Feb-16 22:33N 47°25' W 122°22'9 9.4
2017-Feb-16 21:33N 47°16' W 122°26'0 0.4
2017-Feb-16 20:33N 47°15' W 122°26'0 0.0
2017-Feb-16 19:33N 47°15' W 122°26'0 0.0
2017-Feb-16 18:33N 47°15' W 122°26'0 0.0
2017-Feb-16 17:33N 47°15' W 122°26'0 0.0
2017-Feb-16 16:33N 47°15' W 122°26'0 0.0
2017-Feb-16 15:33N 47°15' W 122°26'0 0.0
2017-Feb-16 14:33N 47°15' W 122°26'1 0.8
2017-Feb-16 13:33N 47°16' W 122°26'2 2.0
2017-Feb-16 12:32N 47°16' W 122°23'0 0.0
2017-Feb-16 11:33N 47°16' W 122°23'1 1.3
2017-Feb-16 10:33N 47°17' W 122°25'0 0.0
2017-Feb-16 09:33N 47°17' W 122°25'0 0.4
2017-Feb-16 08:33N 47°16' W 122°25'0 0.3
2017-Feb-16 07:33N 47°16' W 122°25'0 0.5
2017-Feb-16 06:33N 47°17' W 122°25'0 0.0
2017-Feb-16 05:33N 47°17' W 122°25'0 0.0
2017-Feb-16 04:33N 47°17' W 122°25'0 0.0
2017-Feb-16 03:33N 47°17' W 122°25'0 0.0
2017-Feb-16 02:33N 47°17' W 122°25'2 1.6
2017-Feb-16 01:32N 47°15' W 122°26'0 0.0
2017-Feb-16 00:32N 47°15' W 122°26'0 0.0
2017-Feb-15 23:33N 47°15' W 122°26'0 0.0
2017-Feb-15 22:33N 47°15' W 122°26'0 0.0
2017-Feb-15 21:33N 47°15' W 122°26'0 0.0
2017-Feb-15 20:32N 47°15' W 122°26'0 0.0
2017-Feb-15 19:33N 47°15' W 122°26'1 1.1
2017-Feb-15 18:33N 47°16' W 122°25'1 0.7
2017-Feb-15 17:33N 47°16' W 122°26'1 1.0
2017-Feb-15 16:33N 47°15' W 122°26'0 0.0
2017-Feb-15 15:33N 47°15' W 122°26'0 0.0
2017-Feb-15 14:32N 47°15' W 122°26'0 0.0
2017-Feb-15 12:33N 47°15' W 122°26'0 0.0
2017-Feb-15 11:33N 47°15' W 122°26'0 0.0
2017-Feb-15 10:33N 47°15' W 122°26'0 0.0
2017-Feb-15 08:33N 47°15' W 122°26'0 0.0
2017-Feb-15 07:33N 47°15' W 122°26'2 1.9
2017-Feb-15 06:33N 47°16' W 122°23'2 2.4
2017-Feb-15 05:33N 47°17' W 122°26'2 2.5
2017-Feb-15 04:33N 47°16' W 122°23'0 0.1
2017-Feb-15 03:12N 47°16' W 122°23'1 1.6
2017-Feb-15 02:32N 47°16' W 122°24'1 1.1
2017-Feb-15 01:33N 47°16' W 122°23'1 1.4
2017-Feb-15 00:31N 47°17' W 122°25'2 1.6
2017-Feb-14 23:33N 47°15' W 122°26'0 0.0
2017-Feb-14 22:33N 47°15' W 122°26'  
Track history (hours):
 
Tides and Currents Weather Stations Pressure Air Temp Water Temp Dewpoint Dewpoint Depression Visibility Wind Speed Wind Dir Waves Ship Positions

Guide

Owner: Crowley Marine Services, SEATTLE, WA. More information available from US FCC via Universal Licensing System and Coast Guard Vessel Documentation Center.

Last reported at 2017-Feb-24 21:33 UTC. Time now 2017-Feb-24 21:37 UTC.
Position N 47°15' W 122°26'.

Length 34 m; draft 5.1 m.

Type: Tug. MMSI: 366759530.

Date/timePositionNaut miles runAvg speedWind from/ knotsBaromVisibWave heightAir tempDewpointWater temp
2017-Feb-24 21:33N 47°15' W 122°26'0 0.2
2017-Feb-24 20:33N 47°15' W 122°26'0 0.0
2017-Feb-24 19:27N 47°15' W 122°26'0 0.0
2017-Feb-24 18:33N 47°15' W 122°26'0 0.0
2017-Feb-24 17:25N 47°15' W 122°26'0 0.0
2017-Feb-24 16:20N 47°15' W 122°26'0 0.0
2017-Feb-24 15:23N 47°15' W 122°26'2 1.7
2017-Feb-24 14:10N 47°16' W 122°23'1 1.9
2017-Feb-24 13:33N 47°16' W 122°24'1 0.8
2017-Feb-24 12:32N 47°17' W 122°25'1 1.0
2017-Feb-24 11:32N 47°16' W 122°24'2 2.1
2017-Feb-24 10:33N 47°18' W 122°26'0 0.3
2017-Feb-24 09:20N 47°18' W 122°26'0 0.0
2017-Feb-24 08:23N 47°18' W 122°26'0 0.0
2017-Feb-24 07:20N 47°18' W 122°26'0 0.0
2017-Feb-24 06:33N 47°18' W 122°26'0 0.0
2017-Feb-24 05:33N 47°18' W 122°26'0 0.0
2017-Feb-24 04:33N 47°18' W 122°26'0 0.0
2017-Feb-24 03:32N 47°18' W 122°26'4 4.6
2017-Feb-24 02:33N 47°22' W 122°24'7 7.0
2017-Feb-24 01:33N 47°29' W 122°26'7 7.0
2017-Feb-24 00:33N 47°36' W 122°24'2 2.1
2017-Feb-23 23:33N 47°35' W 122°21'0 0.2
2017-Feb-23 22:34N 47°35' W 122°21'3 2.6
2017-Feb-23 21:33N 47°35' W 122°25'5 5.1
2017-Feb-23 20:33N 47°34' W 122°32'1 1.0
2017-Feb-23 19:34N 47°34' W 122°31'1 1.5
2017-Feb-23 18:33N 47°33' W 122°29'7 7.1
2017-Feb-23 17:33N 47°26' W 122°31'7 7.0
2017-Feb-23 16:33N 47°19' W 122°30'4 3.5
2017-Feb-23 15:33N 47°18' W 122°26'0 0.0
2017-Feb-23 14:30N 47°18' W 122°26'1 1.4
2017-Feb-23 13:33N 47°17' W 122°25'1 0.6
2017-Feb-23 12:33N 47°17' W 122°26'1 0.6
2017-Feb-23 11:33N 47°17' W 122°25'0 0.4
2017-Feb-23 10:33N 47°17' W 122°25'2 1.8
2017-Feb-23 09:33N 47°16' W 122°23'2 1.9
2017-Feb-23 08:33N 47°15' W 122°26'0 0.0
2017-Feb-23 07:33N 47°15' W 122°26'0 0.0
2017-Feb-23 06:33N 47°15' W 122°26'0 0.0
2017-Feb-23 05:24N 47°15' W 122°26'0 0.0
2017-Feb-23 03:25N 47°15' W 122°26'0 0.0
2017-Feb-23 02:33N 47°15' W 122°26'0 0.0
2017-Feb-23 01:33N 47°15' W 122°26'1 0.8
2017-Feb-23 00:33N 47°16' W 122°27'2 2.4
2017-Feb-22 23:33N 47°16' W 122°23'2 1.5
2017-Feb-22 22:33N 47°17' W 122°25'2 1.6
2017-Feb-22 21:31N 47°15' W 122°26'0 0.0
2017-Feb-22 20:33N 47°15' W 122°26'0 0.0
2017-Feb-22 19:33N 47°15' W 122°26'2 1.6
2017-Feb-22 18:33N 47°16' W 122°24'0 0.2
2017-Feb-22 17:30N 47°16' W 122°24'1 0.6
2017-Feb-22 16:33N 47°16' W 122°23'0 0.0
2017-Feb-22 15:33N 47°16' W 122°23'0 0.0
2017-Feb-22 14:33N 47°16' W 122°23'1 0.7
2017-Feb-22 13:33N 47°16' W 122°24'0 0.3
2017-Feb-22 12:33N 47°16' W 122°23'0 0.4
2017-Feb-22 11:33N 47°16' W 122°23'2 2.0
2017-Feb-22 10:33N 47°15' W 122°26'0 0.0
2017-Feb-22 09:33N 47°15' W 122°26'0 0.0
2017-Feb-22 08:33N 47°15' W 122°26'0 0.0
2017-Feb-22 07:33N 47°15' W 122°26'0 0.0
2017-Feb-22 06:33N 47°15' W 122°26'0 0.0
2017-Feb-22 05:33N 47°15' W 122°26'0 0.0
2017-Feb-22 04:33N 47°15' W 122°26'0 0.0
2017-Feb-22 03:09N 47°15' W 122°26'2 2.7
2017-Feb-22 02:32N 47°17' W 122°25'2 1.7
2017-Feb-22 01:33N 47°16' W 122°23'2 1.0
2017-Feb-21 23:29N 47°15' W 122°26'0 0.0
2017-Feb-21 22:33N 47°15' W 122°26'0 0.0
2017-Feb-21 21:32N 47°15' W 122°26'0 0.0
2017-Feb-21 20:33N 47°15' W 122°26'0 0.0
2017-Feb-21 19:33N 47°15' W 122°26'0 0.0
2017-Feb-21 18:33N 47°15' W 122°26'0 0.0
2017-Feb-21 17:33N 47°15' W 122°26'0 0.0
2017-Feb-21 16:33N 47°15' W 122°26'0 0.0
2017-Feb-21 15:33N 47°15' W 122°26'0 0.0
2017-Feb-21 14:30N 47°15' W 122°26'0 0.3
2017-Feb-21 13:33N 47°16' W 122°26'2 2.0
2017-Feb-21 12:33N 47°16' W 122°23'1 0.4
2017-Feb-21 10:33N 47°16' W 122°24'2 1.6
2017-Feb-21 09:33N 47°15' W 122°26'0 0.0
2017-Feb-21 08:33N 47°15' W 122°26'0 0.0
2017-Feb-21 07:33N 47°15' W 122°26'0 0.0
2017-Feb-21 06:33N 47°15' W 122°26'0 0.0
2017-Feb-21 05:33N 47°15' W 122°26'0 0.0
2017-Feb-21 04:33N 47°15' W 122°26'0 0.0
2017-Feb-21 03:32N 47°15' W 122°26'0 0.0
2017-Feb-21 02:33N 47°15' W 122°26'2 1.5
2017-Feb-21 01:31N 47°16' W 122°24'0 0.4
2017-Feb-21 00:33N 47°16' W 122°24'1 1.5
2017-Feb-20 23:33N 47°17' W 122°26'1 0.9
2017-Feb-20 22:33N 47°18' W 122°26'0 0.0
2017-Feb-20 21:33N 47°18' W 122°26'0 0.0
2017-Feb-20 20:32N 47°18' W 122°26'0 0.0
2017-Feb-20 19:33N 47°18' W 122°26'0 0.0
2017-Feb-20 18:33N 47°18' W 122°26'0 0.0
2017-Feb-20 17:33N 47°18' W 122°26'0 0.0
2017-Feb-20 16:33N 47°18' W 122°26'2 2.1
2017-Feb-20 15:28N 47°16' W 122°24'1 1.0
2017-Feb-20 14:33N 47°15' W 122°23'2 1.8
2017-Feb-20 13:33N 47°17' W 122°25'1 1.3
2017-Feb-20 12:33N 47°16' W 122°26'1 0.7
2017-Feb-20 11:33N 47°15' W 122°26'0 0.0
2017-Feb-20 10:33N 47°15' W 122°26'0 0.0
2017-Feb-20 09:32N 47°15' W 122°26'0 0.0
2017-Feb-20 08:33N 47°15' W 122°26'0 0.0
2017-Feb-20 07:33N 47°15' W 122°26'0 0.0
2017-Feb-20 06:33N 47°15' W 122°26'0 0.0
2017-Feb-20 05:30N 47°15' W 122°26'0 0.0
2017-Feb-20 04:33N 47°15' W 122°26'0 0.0
2017-Feb-20 03:33N 47°15' W 122°26'0 0.0
2017-Feb-20 02:31N 47°15' W 122°26'0 0.0
2017-Feb-20 01:21N 47°15' W 122°26'2 1.9
2017-Feb-20 00:32N 47°17' W 122°25'1 1.3
2017-Feb-19 23:33N 47°18' W 122°26'0 0.4
2017-Feb-19 22:32N 47°17' W 122°26'2 2.3
2017-Feb-19 21:33N 47°16' W 122°23'3 3.0
2017-Feb-19 20:33N 47°18' W 122°27'1 0.7
2017-Feb-19 19:33N 47°18' W 122°26'0 0.0
2017-Feb-19 18:32N 47°18' W 122°26'5 5.2
2017-Feb-19 17:33N 47°22' W 122°23'7 7.1
2017-Feb-19 16:33N 47°29' W 122°26'7 7.0
2017-Feb-19 15:33N 47°36' W 122°23'2 1.8
2017-Feb-19 14:33N 47°35' W 122°21'4 4.2
2017-Feb-19 13:33N 47°32' W 122°25'1111.0
2017-Feb-19 12:33N 47°21' W 122°24'5 5.5
2017-Feb-19 11:33N 47°16' W 122°24'0 0.3
2017-Feb-19 10:33N 47°16' W 122°23'3 2.6
2017-Feb-19 09:33N 47°18' W 122°26'0 0.0
2017-Feb-19 08:33N 47°18' W 122°26'0 0.0
2017-Feb-19 07:33N 47°18' W 122°26'0 0.0
2017-Feb-19 06:33N 47°18' W 122°26'1 0.9
2017-Feb-19 05:33N 47°18' W 122°27'7 6.7
2017-Feb-19 04:33N 47°24' W 122°22'8 8.1
2017-Feb-19 03:33N 47°31' W 122°26'6 5.7
2017-Feb-19 02:33N 47°36' W 122°21'1 0.6
2017-Feb-19 01:33N 47°35' W 122°21'2 2.3
2017-Feb-19 00:33N 47°36' W 122°24'6 6.4
2017-Feb-18 23:33N 47°29' W 122°25'7 7.0
2017-Feb-18 22:33N 47°23' W 122°21'7 6.9
2017-Feb-18 21:33N 47°17' W 122°27'2 2.3
2017-Feb-18 20:32N 47°15' W 122°26'0 0.0
2017-Feb-18 19:30N 47°15' W 122°26'0 0.0
2017-Feb-18 18:32N 47°15' W 122°26'1 1.3
2017-Feb-18 17:33N 47°16' W 122°25'1 1.3
2017-Feb-18 16:33N 47°15' W 122°26'0 0.0
2017-Feb-18 15:33N 47°15' W 122°26'0 0.0
2017-Feb-18 14:33N 47°15' W 122°26'2 1.8
2017-Feb-18 13:33N 47°17' W 122°25'2 2.0
2017-Feb-18 12:32N 47°16' W 122°23'2 2.5
2017-Feb-18 11:33N 47°17' W 122°26'2 2.1
2017-Feb-18 10:33N 47°16' W 122°23'2 1.8
2017-Feb-18 09:33N 47°15' W 122°26'0 0.0
2017-Feb-18 08:33N 47°15' W 122°26'0 0.0
2017-Feb-18 07:33N 47°15' W 122°26'0 0.0
2017-Feb-18 06:33N 47°15' W 122°26'0 0.0
2017-Feb-18 05:33N 47°15' W 122°26'0 0.0
2017-Feb-18 04:33N 47°15' W 122°26'0 0.0
2017-Feb-18 03:33N 47°15' W 122°26'0 0.0
2017-Feb-18 02:31N 47°15' W 122°26'0 0.0
2017-Feb-18 00:25N 47°15' W 122°26'2 1.2
2017-Feb-17 23:08N 47°17' W 122°25'1 1.9
2017-Feb-17 22:33N 47°17' W 122°26'2 0.5
2017-Feb-17 19:21N 47°15' W 122°26'0 0.0
2017-Feb-17 18:33N 47°15' W 122°26'0 0.0
2017-Feb-17 17:33N 47°15' W 122°26'0 0.3
2017-Feb-17 16:33N 47°16' W 122°26'1 1.4
2017-Feb-17 15:29N 47°16' W 122°24'2 2.2
2017-Feb-17 14:33N 47°18' W 122°27'3 2.8
2017-Feb-17 13:33N 47°16' W 122°24'2 2.4
2017-Feb-17 12:33N 47°17' W 122°27'2 1.7
2017-Feb-17 11:33N 47°15' W 122°26'0 0.2
2017-Feb-17 10:33N 47°15' W 122°26'0 0.0
2017-Feb-17 09:33N 47°15' W 122°26'0 0.0
2017-Feb-17 08:33N 47°15' W 122°26'0 0.0
2017-Feb-17 07:33N 47°15' W 122°26'0 0.0
2017-Feb-17 06:33N 47°15' W 122°26'0 0.0
2017-Feb-17 05:33N 47°15' W 122°26'0 0.0
2017-Feb-17 04:33N 47°15' W 122°26'0 0.0
2017-Feb-17 03:33N 47°15' W 122°26'0 0.0
2017-Feb-17 02:33N 47°15' W 122°26'0 0.0
2017-Feb-17 01:33N 47°15' W 122°26'0 0.0
2017-Feb-17 00:33N 47°15' W 122°26'5 4.8
2017-Feb-16 23:33N 47°20' W 122°27'6 5.8
2017-Feb-16 22:33N 47°25' W 122°22'9 9.4
2017-Feb-16 21:33N 47°16' W 122°26'0 0.4
2017-Feb-16 20:33N 47°15' W 122°26'0 0.0
2017-Feb-16 19:33N 47°15' W 122°26'0 0.0
2017-Feb-16 18:33N 47°15' W 122°26'0 0.0
2017-Feb-16 17:33N 47°15' W 122°26'0 0.0
2017-Feb-16 16:33N 47°15' W 122°26'0 0.0
2017-Feb-16 15:33N 47°15' W 122°26'0 0.0
2017-Feb-16 14:33N 47°15' W 122°26'1 0.8
2017-Feb-16 13:33N 47°16' W 122°26'2 2.0
2017-Feb-16 12:32N 47°16' W 122°23'0 0.0
2017-Feb-16 11:33N 47°16' W 122°23'1 1.3
2017-Feb-16 10:33N 47°17' W 122°25'0 0.0
2017-Feb-16 09:33N 47°17' W 122°25'0 0.4
2017-Feb-16 08:33N 47°16' W 122°25'0 0.3
2017-Feb-16 07:33N 47°16' W 122°25'0 0.5
2017-Feb-16 06:33N 47°17' W 122°25'0 0.0
2017-Feb-16 05:33N 47°17' W 122°25'0 0.0
2017-Feb-16 04:33N 47°17' W 122°25'0 0.0
2017-Feb-16 03:33N 47°17' W 122°25'0 0.0
2017-Feb-16 02:33N 47°17' W 122°25'2 1.6
2017-Feb-16 01:32N 47°15' W 122°26'0 0.0
2017-Feb-16 00:32N 47°15' W 122°26'0 0.0
2017-Feb-15 23:33N 47°15' W 122°26'0 0.0
2017-Feb-15 22:33N 47°15' W 122°26'0 0.0
2017-Feb-15 21:33N 47°15' W 122°26'0 0.0
2017-Feb-15 20:32N 47°15' W 122°26'0 0.0
2017-Feb-15 19:33N 47°15' W 122°26'1 1.1
2017-Feb-15 18:33N 47°16' W 122°25'1 0.7
2017-Feb-15 17:33N 47°16' W 122°26'1 1.0
2017-Feb-15 16:33N 47°15' W 122°26'0 0.0
2017-Feb-15 15:33N 47°15' W 122°26'0 0.0
2017-Feb-15 14:32N 47°15' W 122°26'0 0.0
2017-Feb-15 12:33N 47°15' W 122°26'0 0.0
2017-Feb-15 11:33N 47°15' W 122°26'0 0.0
2017-Feb-15 10:33N 47°15' W 122°26'0 0.0
2017-Feb-15 08:33N 47°15' W 122°26'0 0.0
2017-Feb-15 07:33N 47°15' W 122°26'2 1.9
2017-Feb-15 06:33N 47°16' W 122°23'2 2.4
2017-Feb-15 05:33N 47°17' W 122°26'2 2.5
2017-Feb-15 04:33N 47°16' W 122°23'0 0.1
2017-Feb-15 03:12N 47°16' W 122°23'1 1.6
2017-Feb-15 02:32N 47°16' W 122°24'1 1.1
2017-Feb-15 01:33N 47°16' W 122°23'1 1.4
2017-Feb-15 00:31N 47°17' W 122°25'2 1.6
2017-Feb-14 23:33N 47°15' W 122°26'0 0.0
2017-Feb-14 22:33N 47°15' W 122°26'  

Dump ship's entire track history